Time;durP1;ratioP1;P1;durP2;ratioP2;P2;SDS_P1;SDS_P2;PMS_P1;PMS_P2;Temp;Humidity;BMP_temperature;BMP_pressure;BME280_temperature;BME280_humidity;BME280_pressure;Samples;Min_cycle;Max_cycle;Signal;HPM_P1;HPM_P2
2023/08/23 00:00:05;;;;;;;13.13;6.90;;;;;;;;;;7373985;19;20031;-73
2023/08/23 00:02:30;;;;;;;12.07;7.25;;;;;;;;;;7373318;19;20011;-72
2023/08/23 00:04:55;;;;;;;10.80;7.32;;;;;;;;;;7371185;19;20010;-72
2023/08/23 00:07:21;;;;;;;13.98;6.85;;;;;;;;;;7394826;19;20418;-73
2023/08/23 00:09:46;;;;;;;9.05;7.00;;;;;;;;;;7373371;19;20781;-72
2023/08/23 00:12:11;;;;;;;10.88;6.75;;;;;;;;;;7372783;19;19998;-72
2023/08/23 00:14:37;;;;;;;11.70;7.50;;;;;;;;;;7370581;19;20014;-73
2023/08/23 00:17:02;;;;;;;13.43;7.03;;;;;;;;;;7373687;19;20162;-73
2023/08/23 00:19:27;;;;;;;11.60;7.38;;;;;;;;;;7395254;19;20055;-74
2023/08/23 00:21:53;;;;;;;12.35;6.50;;;;;;;;;;7372674;19;20014;-73
2023/08/23 00:24:19;;;;;;;10.95;6.82;;;;;;;;;;7370886;19;20006;-73
2023/08/23 00:26:45;;;;;;;16.65;7.32;;;;;;;;;;7372493;19;20033;-73
2023/08/23 00:29:10;;;;;;;10.45;6.40;;;;;;;;;;7372497;19;20010;-72
2023/08/23 00:31:36;;;;;;;10.73;6.90;;;;;;;;;;7394458;19;20078;-72
2023/08/23 00:34:01;;;;;;;12.85;7.43;;;;;;;;;;7371658;19;20010;-73
2023/08/23 00:36:26;;;;;;;11.82;6.40;;;;;;;;;;7377250;19;20010;-74
2023/08/23 00:38:53;;;;;;;11.57;6.88;;;;;;;;;;7387744;19;20014;-73
2023/08/23 00:41:18;;;;;;;16.42;8.32;;;;;;;;;;7373012;19;20464;-73
2023/08/23 00:43:43;;;;;;;16.10;7.30;;;;;;;;;;7380962;19;20085;-72
2023/08/23 00:46:09;;;;;;;14.00;7.93;;;;;;;;;;7387853;19;20109;-73
2023/08/23 00:48:34;;;;;;;13.35;6.95;;;;;;;;;;7372850;19;20014;-73
2023/08/23 00:51:00;;;;;;;12.32;7.05;;;;;;;;;;7372608;19;20017;-73
2023/08/23 00:53:25;;;;;;;12.65;7.75;;;;;;;;;;7372623;19;20462;-73
2023/08/23 00:55:51;;;;;;;11.52;7.53;;;;;;;;;;7371128;19;20093;-72
2023/08/23 00:58:17;;;;;;;18.77;7.53;;;;;;;;;;7393855;19;20005;-72
2023/08/23 01:00:44;;;;;;;12.48;7.45;;;;;;;;;;7371973;19;20017;-73
2023/08/23 01:03:10;;;;;;;14.60;7.72;;;;;;;;;;7371917;19;20078;-73
2023/08/23 01:05:56;;;;;;;11.82;7.60;;;;;;;;;;7369258;19;20025;-72
2023/08/23 01:08:33;;;;;;;12.63;7.22;;;;;;;;;;7372021;19;20003;-71
2023/08/23 01:11:27;;;;;;;13.23;7.95;;;;;;;;;;7373603;19;20006;-73
2023/08/23 01:14:01;;;;;;;12.25;7.85;;;;;;;;;;7370597;19;20010;-73
2023/08/23 01:16:28;;;;;;;13.45;7.40;;;;;;;;;;7393898;19;20023;-73
2023/08/23 01:18:55;;;;;;;13.95;8.25;;;;;;;;;;7380267;19;20050;-75
2023/08/23 01:21:31;;;;;;;12.93;8.07;;;;;;;;;;7391581;19;20010;-73
2023/08/23 01:23:57;;;;;;;12.00;7.70;;;;;;;;;;7370767;19;20031;-73
2023/08/23 01:26:22;;;;;;;13.55;7.53;;;;;;;;;;7371237;19;20349;-72
2023/08/23 01:28:50;;;;;;;12.50;7.68;;;;;;;;;;7369381;19;20046;-72
2023/08/23 01:31:18;;;;;;;14.27;7.60;;;;;;;;;;7392741;19;20549;-73
2023/08/23 01:34:18;;;;;;;12.80;8.52;;;;;;;;;;7370778;19;20021;-73
2023/08/23 01:36:44;;;;;;;11.98;7.47;;;;;;;;;;7370614;19;20014;-73
2023/08/23 01:39:10;;;;;;;16.23;7.95;;;;;;;;;;7370491;19;20002;-73
2023/08/23 01:41:37;;;;;;;11.63;7.57;;;;;;;;;;7370768;19;20022;-72
2023/08/23 01:44:02;;;;;;;11.00;7.03;;;;;;;;;;7368874;19;19999;-74
2023/08/23 01:46:28;;;;;;;11.88;7.43;;;;;;;;;;7391730;19;20334;-72
2023/08/23 01:48:53;;;;;;;12.20;7.65;;;;;;;;;;7369911;19;19998;-73
2023/08/23 01:51:18;;;;;;;13.93;7.15;;;;;;;;;;7370358;19;20013;-73
2023/08/23 01:53:44;;;;;;;11.45;7.28;;;;;;;;;;7370125;19;20018;-73
2023/08/23 01:56:09;;;;;;;15.88;7.80;;;;;;;;;;7369640;19;20013;-73
2023/08/23 01:58:34;;;;;;;13.15;7.25;;;;;;;;;;7391885;19;20077;-73
2023/08/23 02:01:00;;;;;;;13.25;7.63;;;;;;;;;;7368759;19;20031;-73
2023/08/23 02:03:25;;;;;;;10.20;6.90;;;;;;;;;;7370265;19;20019;-73
2023/08/23 02:05:50;;;;;;;15.35;7.43;;;;;;;;;;7368598;19;20064;-73
2023/08/23 02:08:17;;;;;;;12.60;7.78;;;;;;;;;;7369269;19;20023;-73
2023/08/23 02:10:42;;;;;;;11.88;7.00;;;;;;;;;;7392166;19;19998;-73
2023/08/23 02:13:07;;;;;;;12.13;7.80;;;;;;;;;;7369440;19;20044;-73
2023/08/23 02:15:33;;;;;;;13.30;7.30;;;;;;;;;;7367799;19;20010;-73
2023/08/23 02:17:58;;;;;;;11.73;7.45;;;;;;;;;;7369827;19;20431;-73
2023/08/23 02:20:24;;;;;;;11.88;7.65;;;;;;;;;;7370368;19;20002;-73
2023/08/23 02:22:49;;;;;;;10.82;8.35;;;;;;;;;;7369460;19;20490;-72
2023/08/23 02:25:14;;;;;;;17.35;8.20;;;;;;;;;;7388959;19;20003;-74
2023/08/23 02:27:40;;;;;;;11.82;8.05;;;;;;;;;;7368655;19;20002;-74
2023/08/23 02:30:06;;;;;;;13.77;8.10;;;;;;;;;;7369877;19;20007;-73
2023/08/23 02:32:31;;;;;;;11.55;7.63;;;;;;;;;;7368886;19;20464;-73
2023/08/23 02:34:56;;;;;;;13.90;8.18;;;;;;;;;;7367570;19;20014;-74
2023/08/23 02:37:22;;;;;;;12.90;8.52;;;;;;;;;;7392006;19;20013;-73
2023/08/23 02:39:47;;;;;;;10.68;7.82;;;;;;;;;;7368930;19;20013;-72
2023/08/23 02:42:12;;;;;;;12.18;7.78;;;;;;;;;;7382663;19;20031;-73
2023/08/23 02:44:38;;;;;;;10.93;7.55;;;;;;;;;;7392329;19;20014;-73
2023/08/23 02:47:03;;;;;;;12.70;8.10;;;;;;;;;;7375755;19;19999;-73
2023/08/23 02:49:28;;;;;;;17.25;8.73;;;;;;;;;;7391347;19;20007;-73
2023/08/23 02:51:54;;;;;;;15.70;8.35;;;;;;;;;;7369197;19;20015;-73
2023/08/23 02:54:19;;;;;;;12.30;8.45;;;;;;;;;;7366569;19;20003;-74
2023/08/23 02:56:44;;;;;;;11.73;8.15;;;;;;;;;;7368240;19;20038;-73
2023/08/23 02:59:10;;;;;;;12.07;8.07;;;;;;;;;;7369660;19;20007;-73
2023/08/23 03:01:35;;;;;;;13.55;7.75;;;;;;;;;;7389030;19;20014;-73
2023/08/23 03:04:00;;;;;;;12.20;8.20;;;;;;;;;;7368028;19;20010;-73
2023/08/23 03:06:25;;;;;;;12.68;7.60;;;;;;;;;;7367021;19;20006;-73
2023/08/23 03:08:51;;;;;;;13.35;8.05;;;;;;;;;;7367671;19;20077;-73
2023/08/23 03:11:16;;;;;;;16.40;8.27;;;;;;;;;;7369526;19;20002;-74
2023/08/23 03:13:41;;;;;;;14.52;8.00;;;;;;;;;;7389629;19;20011;-73
2023/08/23 03:16:07;;;;;;;14.77;8.30;;;;;;;;;;7367082;19;20003;-74
2023/08/23 03:18:32;;;;;;;18.30;8.90;;;;;;;;;;7368372;19;20002;-73
2023/08/23 03:20:57;;;;;;;17.33;8.15;;;;;;;;;;7368031;19;20022;-73
2023/08/23 03:23:23;;;;;;;11.95;8.43;;;;;;;;;;7366985;19;20010;-73
2023/08/23 03:25:49;;;;;;;12.48;8.52;;;;;;;;;;7366828;19;19999;-73
2023/08/23 03:28:15;;;;;;;13.55;8.45;;;;;;;;;;7388616;19;20015;-73
2023/08/23 03:30:41;;;;;;;11.68;7.80;;;;;;;;;;7367438;19;20405;-73
2023/08/23 03:33:06;;;;;;;15.18;8.10;;;;;;;;;;7367126;19;20006;-73
2023/08/23 03:35:32;;;;;;;14.98;7.88;;;;;;;;;;7366475;19;20015;-73
2023/08/23 03:37:57;;;;;;;15.07;8.23;;;;;;;;;;7367909;19;20746;-73
2023/08/23 03:40:23;;;;;;;11.80;7.90;;;;;;;;;;7389176;19;20021;-73
2023/08/23 03:42:48;;;;;;;12.07;7.72;;;;;;;;;;7367050;19;20107;-73
2023/08/23 03:45:14;;;;;;;12.20;7.95;;;;;;;;;;7365165;19;20621;-73
2023/08/23 03:47:39;;;;;;;11.68;8.80;;;;;;;;;;7366856;19;20602;-73
2023/08/23 03:50:05;;;;;;;10.80;7.82;;;;;;;;;;7366999;19;20011;-73
2023/08/23 03:52:30;;;;;;;13.63;7.88;;;;;;;;;;7388941;19;20421;-73
2023/08/23 03:54:55;;;;;;;15.63;8.50;;;;;;;;;;7364337;19;20034;-73
2023/08/23 03:57:21;;;;;;;15.93;8.60;;;;;;;;;;7367958;19;20432;-73
2023/08/23 03:59:46;;;;;;;14.10;8.15;;;;;;;;;;7366999;19;20755;-73
2023/08/23 04:02:11;;;;;;;13.55;7.65;;;;;;;;;;7366322;19;20030;-73
2023/08/23 04:04:37;;;;;;;12.20;8.18;;;;;;;;;;7386132;19;20006;-73
2023/08/23 04:07:02;;;;;;;12.52;7.78;;;;;;;;;;7373264;19;20077;-74
2023/08/23 04:09:27;;;;;;;9.82;7.90;;;;;;;;;;7376941;19;20105;-73
2023/08/23 04:11:52;;;;;;;13.80;8.40;;;;;;;;;;7376125;19;20516;-74
2023/08/23 04:14:18;;;;;;;14.48;8.13;;;;;;;;;;7373582;19;20088;-73
2023/08/23 04:16:43;;;;;;;13.65;8.48;;;;;;;;;;7387767;19;20003;-73
2023/08/23 04:19:08;;;;;;;14.50;8.63;;;;;;;;;;7384014;19;20014;-73
2023/08/23 04:21:34;;;;;;;10.35;8.07;;;;;;;;;;7373590;19;20070;-73
2023/08/23 04:23:59;;;;;;;12.02;8.00;;;;;;;;;;7372352;19;20527;-74
2023/08/23 04:26:25;;;;;;;10.85;7.78;;;;;;;;;;7372647;19;20006;-73
2023/08/23 04:28:50;;;;;;;12.82;8.07;;;;;;;;;;7369965;19;20002;-72
2023/08/23 04:31:16;;;;;;;11.57;8.00;;;;;;;;;;7390963;19;20067;-73
2023/08/23 04:33:42;;;;;;;12.68;8.85;;;;;;;;;;7371388;19;20014;-72
2023/08/23 04:36:07;;;;;;;11.52;7.78;;;;;;;;;;7372696;19;20010;-74
2023/08/23 04:38:32;;;;;;;14.90;8.05;;;;;;;;;;7383311;19;20483;-73
2023/08/23 04:41:02;;;;;;;13.10;8.57;;;;;;;;;;7383661;19;20140;-73
2023/08/23 04:43:27;;;;;;;15.60;8.75;;;;;;;;;;7403165;19;20036;-73
2023/08/23 04:45:56;;;;;;;16.00;8.00;;;;;;;;;;7378436;19;20015;-74
2023/08/23 04:48:23;;;;;;;12.27;8.02;;;;;;;;;;7372317;19;20006;-73
2023/08/23 04:50:52;;;;;;;11.35;8.15;;;;;;;;;;7372959;19;20014;-73
2023/08/23 04:53:17;;;;;;;12.93;7.38;;;;;;;;;;7371805;19;20027;-74
2023/08/23 04:55:43;;;;;;;12.68;7.70;;;;;;;;;;7391890;19;20011;-73
2023/08/23 04:58:09;;;;;;;11.75;7.65;;;;;;;;;;7384125;19;20034;-74
2023/08/23 05:00:34;;;;;;;12.45;7.80;;;;;;;;;;7372839;19;20103;-74
2023/08/23 05:03:00;;;;;;;10.52;7.35;;;;;;;;;;7370145;19;20835;-73
2023/08/23 05:05:25;;;;;;;10.70;7.25;;;;;;;;;;7370216;19;19999;-73
2023/08/23 05:07:50;;;;;;;11.82;7.22;;;;;;;;;;7371137;19;20024;-73
2023/08/23 05:10:16;;;;;;;11.20;6.80;;;;;;;;;;7393502;19;20009;-73
2023/08/23 05:12:41;;;;;;;9.95;6.80;;;;;;;;;;7370733;19;20336;-73
2023/08/23 05:15:07;;;;;;;10.75;6.72;;;;;;;;;;7370552;19;20003;-74
2023/08/23 05:17:32;;;;;;;10.02;6.30;;;;;;;;;;7369091;19;20023;-73
2023/08/23 05:19:57;;;;;;;12.80;6.80;;;;;;;;;;7371718;19;20006;-73
2023/08/23 05:22:23;;;;;;;12.38;6.90;;;;;;;;;;7393537;19;20003;-73
2023/08/23 05:24:48;;;;;;;9.02;5.90;;;;;;;;;;7368422;19;20037;-73
2023/08/23 05:27:13;;;;;;;12.38;6.65;;;;;;;;;;7372046;19;20014;-73
2023/08/23 05:29:39;;;;;;;10.95;6.70;;;;;;;;;;7371114;19;20034;-73
2023/08/23 05:32:04;;;;;;;12.68;6.00;;;;;;;;;;7371353;19;20014;-72
2023/08/23 05:34:29;;;;;;;13.45;6.32;;;;;;;;;;7390156;19;19998;-73
2023/08/23 05:36:54;;;;;;;18.00;6.60;;;;;;;;;;7371111;19;20014;-76
2023/08/23 05:39:20;;;;;;;16.95;5.78;;;;;;;;;;7371782;19;20007;-73
2023/08/23 05:41:45;;;;;;;14.57;5.93;;;;;;;;;;7370481;19;20006;-74
2023/08/23 05:44:10;;;;;;;12.73;5.40;;;;;;;;;;7369931;19;20014;-72
2023/08/23 05:46:36;;;;;;;11.35;5.53;;;;;;;;;;7393263;19;19995;-73
2023/08/23 05:49:01;;;;;;;13.10;5.40;;;;;;;;;;7369330;19;20513;-73
2023/08/23 05:51:26;;;;;;;11.35;5.90;;;;;;;;;;7371499;19;20776;-73
2023/08/23 05:53:52;;;;;;;13.85;7.03;;;;;;;;;;7370817;19;20013;-74
2023/08/23 05:56:17;;;;;;;15.48;6.10;;;;;;;;;;7371251;19;19998;-73
2023/08/23 05:58:42;;;;;;;11.43;5.93;;;;;;;;;;7392964;19;20071;-71
2023/08/23 06:01:07;;;;;;;14.05;5.60;;;;;;;;;;7370465;19;20446;-72
2023/08/23 06:03:33;;;;;;;11.40;5.53;;;;;;;;;;7369970;19;20022;-73
2023/08/23 06:05:58;;;;;;;13.48;6.80;;;;;;;;;;7368852;19;20097;-73
2023/08/23 06:08:23;;;;;;;14.45;7.15;;;;;;;;;;7368563;19;20014;-73
2023/08/23 06:10:49;;;;;;;21.38;7.53;;;;;;;;;;7371108;19;19999;-73
2023/08/23 06:13:15;;;;;;;17.75;6.80;;;;;;;;;;7392136;19;20016;-72
2023/08/23 06:15:40;;;;;;;18.73;7.00;;;;;;;;;;7368980;19;20043;-73
2023/08/23 06:18:06;;;;;;;17.02;6.95;;;;;;;;;;7370285;19;20552;-72
2023/08/23 06:20:31;;;;;;;18.15;6.95;;;;;;;;;;7369205;19;20010;-74
2023/08/23 06:22:57;;;;;;;27.35;7.85;;;;;;;;;;7369747;19;20005;-73
2023/08/23 06:25:22;;;;;;;28.30;7.75;;;;;;;;;;7387851;19;20010;-73
2023/08/23 06:27:48;;;;;;;25.92;7.53;;;;;;;;;;7368405;19;20090;-73
2023/08/23 06:30:15;;;;;;;17.92;6.72;;;;;;;;;;7368534;19;20018;-73
2023/08/23 06:32:46;;;;;;;14.73;7.18;;;;;;;;;;7369468;19;20013;-73
2023/08/23 06:35:13;;;;;;;22.00;6.53;;;;;;;;;;7367767;19;20010;-73
2023/08/23 06:37:38;;;;;;;12.55;6.70;;;;;;;;;;7390438;19;20078;-73
2023/08/23 06:40:04;;;;;;;10.55;5.93;;;;;;;;;;7367834;19;20002;-73
2023/08/23 06:42:29;;;;;;;13.80;6.18;;;;;;;;;;7369399;19;20750;-73
2023/08/23 06:44:55;;;;;;;13.75;5.75;;;;;;;;;;7366988;19;20413;-73
2023/08/23 06:47:20;;;;;;;12.23;5.47;;;;;;;;;;7369282;19;20006;-73
2023/08/23 06:49:45;;;;;;;13.57;5.28;;;;;;;;;;7384414;19;20259;-72
2023/08/23 06:52:11;;;;;;;10.27;5.40;;;;;;;;;;7405369;19;20003;-72
2023/08/23 06:54:36;;;;;;;12.35;5.35;;;;;;;;;;7376729;19;20042;-73
2023/08/23 06:57:01;;;;;;;8.40;5.18;;;;;;;;;;7369351;19;20003;-72
2023/08/23 06:59:27;;;;;;;10.52;5.60;;;;;;;;;;7362200;19;20078;-72
2023/08/23 07:01:52;;;;;;;14.27;5.70;;;;;;;;;;7368652;19;20002;-73
2023/08/23 07:04:17;;;;;;;12.18;4.97;;;;;;;;;;7388352;19;19999;-72
2023/08/23 07:06:43;;;;;;;10.32;5.00;;;;;;;;;;7368287;19;20002;-72
2023/08/23 07:09:10;;;;;;;15.45;5.47;;;;;;;;;;7368198;19;20029;-73
2023/08/23 07:11:35;;;;;;;9.07;4.60;;;;;;;;;;7368607;19;20003;-72
2023/08/23 07:14:01;;;;;;;9.07;4.55;;;;;;;;;;7368054;19;20031;-72
2023/08/23 07:16:26;;;;;;;8.63;4.82;;;;;;;;;;7389727;19;20002;-73
2023/08/23 07:18:51;;;;;;;13.48;5.30;;;;;;;;;;7367841;19;20003;-73
2023/08/23 07:21:16;;;;;;;11.15;5.18;;;;;;;;;;7367706;19;20010;-73
2023/08/23 07:23:42;;;;;;;9.25;5.05;;;;;;;;;;7368228;19;20022;-73
2023/08/23 07:26:09;;;;;;;11.40;4.93;;;;;;;;;;7367110;19;20464;-73
2023/08/23 07:28:34;;;;;;;8.30;5.18;;;;;;;;;;7388825;19;20354;-73
2023/08/23 07:31:00;;;;;;;10.18;5.05;;;;;;;;;;7367548;19;20016;-73
2023/08/23 07:33:26;;;;;;;12.13;4.80;;;;;;;;;;7366174;19;20022;-73
2023/08/23 07:35:56;;;;;;;10.55;4.85;;;;;;;;;;7366898;19;20481;-74
2023/08/23 07:38:21;;;;;;;11.82;5.38;;;;;;;;;;7368062;19;20027;-73
2023/08/23 07:40:46;;;;;;;12.05;5.50;;;;;;;;;;7368671;19;20406;-71
2023/08/23 07:43:11;;;;;;;9.43;4.37;;;;;;;;;;7396378;19;20026;-72
2023/08/23 07:45:37;;;;;;;11.93;5.25;;;;;;;;;;7373310;19;20264;-73
2023/08/23 07:48:02;;;;;;;9.35;5.05;;;;;;;;;;7373132;19;20021;-73
2023/08/23 07:50:28;;;;;;;10.70;5.07;;;;;;;;;;7374822;19;20028;-72
2023/08/23 07:52:53;;;;;;;11.18;5.15;;;;;;;;;;7373958;19;20006;-72
2023/08/23 07:55:19;;;;;;;11.73;5.25;;;;;;;;;;7392745;19;19999;-72
2023/08/23 07:57:44;;;;;;;10.30;4.90;;;;;;;;;;7374401;19;20492;-73
2023/08/23 08:00:10;;;;;;;8.73;4.38;;;;;;;;;;7373039;19;20014;-73
2023/08/23 08:02:35;;;;;;;9.55;5.63;;;;;;;;;;7373831;19;20010;-73
2023/08/23 08:05:01;;;;;;;8.55;4.70;;;;;;;;;;7370267;19;20360;-72
2023/08/23 08:07:28;;;;;;;13.35;4.88;;;;;;;;;;7395358;19;20007;-73
2023/08/23 08:09:53;;;;;;;11.95;5.22;;;;;;;;;;7373210;19;20086;-73
2023/08/23 08:12:18;;;;;;;8.68;5.03;;;;;;;;;;7373711;19;20683;-73
2023/08/23 08:14:44;;;;;;;11.02;4.75;;;;;;;;;;7371438;19;20480;-73
2023/08/23 08:17:09;;;;;;;13.98;4.57;;;;;;;;;;7373405;19;20031;-73
2023/08/23 08:19:34;;;;;;;14.30;5.20;;;;;;;;;;7394776;19;20362;-72
2023/08/23 08:21:59;;;;;;;10.10;4.20;;;;;;;;;;7372898;19;20523;-72
2023/08/23 08:24:27;;;;;;;9.83;3.90;;;;;;;;;;7370599;19;20013;-72
2023/08/23 08:26:53;;;;;;;10.93;3.70;;;;;;;;;;7372727;19;20251;-72
2023/08/23 08:29:18;;;;;;;12.48;4.03;;;;;;;;;;7373142;19;20443;-71
2023/08/23 08:31:43;;;;;;;10.98;3.97;;;;;;;;;;7384598;19;20042;-72
2023/08/23 08:34:09;;;;;;;9.13;4.20;;;;;;;;;;7384569;19;20004;-73
2023/08/23 08:36:34;;;;;;;12.65;4.65;;;;;;;;;;7373074;19;20356;-72
2023/08/23 08:38:59;;;;;;;10.65;3.90;;;;;;;;;;7373248;19;20632;-72
2023/08/23 08:41:25;;;;;;;13.40;4.43;;;;;;;;;;7372910;19;20007;-73
2023/08/23 08:43:50;;;;;;;10.48;4.45;;;;;;;;;;7371116;19;20667;-72
2023/08/23 08:46:16;;;;;;;10.18;4.00;;;;;;;;;;7393902;19;20027;-72
2023/08/23 08:48:41;;;;;;;7.55;3.80;;;;;;;;;;7369669;19;20015;-71
2023/08/23 08:51:10;;;;;;;12.63;4.28;;;;;;;;;;7372100;19;20020;-72
2023/08/23 08:53:37;;;;;;;10.63;3.97;;;;;;;;;;7371758;19;20221;-72
2023/08/23 08:56:03;;;;;;;10.60;5.10;;;;;;;;;;7371355;19;20104;-72
2023/08/23 08:58:30;;;;;;;8.57;3.33;;;;;;;;;;7394271;19;20002;-72
2023/08/23 09:00:58;;;;;;;7.65;3.38;;;;;;;;;;7373106;19;20003;-73
2023/08/23 09:03:26;;;;;;;7.13;3.20;;;;;;;;;;7372522;19;20097;-73
2023/08/23 09:05:52;;;;;;;8.10;3.05;;;;;;;;;;7371252;19;20002;-73
2023/08/23 09:08:17;;;;;;;6.43;2.88;;;;;;;;;;7370145;19;20077;-73
2023/08/23 09:10:43;;;;;;;7.28;2.90;;;;;;;;;;7391399;19;20011;-72
2023/08/23 09:13:08;;;;;;;11.00;2.60;;;;;;;;;;7379615;19;20002;-72
2023/08/23 09:15:34;;;;;;;8.45;2.85;;;;;;;;;;7369691;19;20011;-73
2023/08/23 09:17:59;;;;;;;7.23;2.97;;;;;;;;;;7371909;19;20007;-72
2023/08/23 09:20:25;;;;;;;10.25;3.30;;;;;;;;;;7370123;19;20367;-72
2023/08/23 09:22:55;;;;;;;7.05;2.83;;;;;;;;;;7374619;19;19999;-73
2023/08/23 09:25:22;;;;;;;7.03;3.53;;;;;;;;;;7393718;19;20088;-72
2023/08/23 09:27:47;;;;;;;10.63;3.70;;;;;;;;;;7371374;19;19998;-73
2023/08/23 09:30:13;;;;;;;10.85;3.55;;;;;;;;;;7371773;19;20023;-72
2023/08/23 09:32:39;;;;;;;8.20;3.60;;;;;;;;;;7375580;19;20010;-72
2023/08/23 09:35:15;;;;;;;8.88;3.70;;;;;;;;;;7385777;19;20010;-73
2023/08/23 09:37:42;;;;;;;10.73;3.38;;;;;;;;;;7406332;19;19999;-73
2023/08/23 09:40:19;;;;;;;9.07;3.40;;;;;;;;;;7374621;19;20556;-73
2023/08/23 09:42:46;;;;;;;10.93;3.50;;;;;;;;;;7370416;19;20018;-73
2023/08/23 09:45:15;;;;;;;8.18;3.78;;;;;;;;;;7368861;19;20077;-72
2023/08/23 09:47:45;;;;;;;9.70;4.07;;;;;;;;;;7368909;19;20027;-73
2023/08/23 09:50:11;;;;;;;9.23;4.00;;;;;;;;;;7371298;19;20006;-72
2023/08/23 09:52:37;;;;;;;9.18;3.65;;;;;;;;;;7392004;19;20019;-73
2023/08/23 09:55:03;;;;;;;13.85;3.75;;;;;;;;;;7367381;19;20017;-73
2023/08/23 09:57:31;;;;;;;9.40;3.50;;;;;;;;;;7371643;19;20006;-73
2023/08/23 09:59:56;;;;;;;9.00;3.55;;;;;;;;;;7370154;19;20017;-72
2023/08/23 10:02:22;;;;;;;10.85;3.72;;;;;;;;;;7369253;19;20002;-73
2023/08/23 10:04:48;;;;;;;9.43;3.65;;;;;;;;;;7367128;19;20013;-72
2023/08/23 10:07:15;;;;;;;11.80;3.10;;;;;;;;;;7392169;19;20062;-73
2023/08/23 10:09:41;;;;;;;8.50;3.35;;;;;;;;;;7370174;19;20010;-74
2023/08/23 10:12:08;;;;;;;10.85;3.22;;;;;;;;;;7369540;19;20003;-74
2023/08/23 10:14:39;;;;;;;12.90;3.63;;;;;;;;;;7370596;19;20356;-74
2023/08/23 10:17:06;;;;;;;15.05;3.53;;;;;;;;;;7374866;19;20011;-74
2023/08/23 10:19:32;;;;;;;8.70;3.10;;;;;;;;;;7397552;19;20010;-73
2023/08/23 10:21:58;;;;;;;9.38;3.10;;;;;;;;;;7376252;19;20504;-73
2023/08/23 10:24:31;;;;;;;8.45;2.88;;;;;;;;;;7370962;19;20010;-73
2023/08/23 10:26:56;;;;;;;8.68;3.58;;;;;;;;;;7369794;19;20023;-73
2023/08/23 10:29:28;;;;;;;10.23;3.58;;;;;;;;;;7369812;19;20007;-73
2023/08/23 10:31:54;;;;;;;7.85;3.05;;;;;;;;;;7369784;19;20015;-73
2023/08/23 10:34:27;;;;;;;11.25;3.35;;;;;;;;;;7388667;19;20009;-73
2023/08/23 10:36:54;;;;;;;11.23;3.80;;;;;;;;;;7368871;19;20006;-73
2023/08/23 10:39:23;;;;;;;10.13;3.30;;;;;;;;;;7369514;19;20006;-73
2023/08/23 10:41:53;;;;;;;8.50;2.97;;;;;;;;;;7367597;19;20085;-74
2023/08/23 10:44:19;;;;;;;13.30;3.75;;;;;;;;;;7368506;19;20397;-73
2023/08/23 10:46:45;;;;;;;7.53;3.10;;;;;;;;;;7374019;19;20229;-73
2023/08/23 10:49:14;;;;;;;11.45;3.63;;;;;;;;;;7389082;19;20015;-73
2023/08/23 10:51:41;;;;;;;17.45;3.40;;;;;;;;;;7369297;19;20017;-73
2023/08/23 10:54:11;;;;;;;17.80;4.70;;;;;;;;;;7368697;19;20006;-74
2023/08/23 10:56:36;;;;;;;13.57;3.22;;;;;;;;;;7374918;19;20010;-73
2023/08/23 10:59:02;;;;;;;8.52;3.35;;;;;;;;;;7380664;19;19999;-73
2023/08/23 11:01:28;;;;;;;8.27;3.20;;;;;;;;;;7396192;19;20014;-73
2023/08/23 11:03:54;;;;;;;9.05;3.20;;;;;;;;;;7377689;19;20007;-73
2023/08/23 11:06:20;;;;;;;8.85;3.35;;;;;;;;;;7375108;19;20013;-72
2023/08/23 11:08:46;;;;;;;13.65;3.78;;;;;;;;;;7369335;19;20006;-73
2023/08/23 11:11:12;;;;;;;16.73;3.38;;;;;;;;;;7370090;19;20025;-74
2023/08/23 11:13:37;;;;;;;8.88;3.17;;;;;;;;;;7391914;19;20422;-73
2023/08/23 11:16:03;;;;;;;7.95;2.80;;;;;;;;;;7371670;19;20026;-73
2023/08/23 11:18:28;;;;;;;11.98;2.83;;;;;;;;;;7377027;19;20010;-73
2023/08/23 11:20:53;;;;;;;6.95;2.50;;;;;;;;;;7376165;19;20326;-73
2023/08/23 11:23:20;;;;;;;6.95;2.60;;;;;;;;;;7377198;19;20006;-73
2023/08/23 11:25:45;;;;;;;5.20;2.30;;;;;;;;;;7375522;19;20002;-73
2023/08/23 11:28:12;;;;;;;9.13;3.22;;;;;;;;;;7395785;19;20037;-72
2023/08/23 11:30:38;;;;;;;8.77;2.80;;;;;;;;;;7375202;19;20081;-72
2023/08/23 11:33:04;;;;;;;8.65;2.42;;;;;;;;;;7375785;19;20006;-72
2023/08/23 11:35:29;;;;;;;6.45;2.28;;;;;;;;;;7371793;19;20010;-72
2023/08/23 11:37:56;;;;;;;6.53;2.30;;;;;;;;;;7375348;19;19995;-73
2023/08/23 11:40:24;;;;;;;8.73;2.20;;;;;;;;;;7398385;19;20008;-72
2023/08/23 11:42:55;;;;;;;4.50;2.20;;;;;;;;;;7375129;19;20033;-73
2023/08/23 11:45:21;;;;;;;3.40;1.95;;;;;;;;;;7373438;19;20003;-72
2023/08/23 11:47:52;;;;;;;8.70;2.55;;;;;;;;;;7374458;19;20013;-72
2023/08/23 11:50:18;;;;;;;9.23;3.42;;;;;;;;;;7375389;19;20504;-73
2023/08/23 11:52:43;;;;;;;25.50;3.45;;;;;;;;;;7390952;19;20023;-72
2023/08/23 11:55:09;;;;;;;4.32;2.00;;;;;;;;;;7380281;19;20002;-72
2023/08/23 11:57:34;;;;;;;3.17;1.90;;;;;;;;;;7374800;19;20007;-73
2023/08/23 12:00:00;;;;;;;9.23;2.53;;;;;;;;;;7374190;19;20015;-72
2023/08/23 12:02:26;;;;;;;10.50;2.78;;;;;;;;;;7373190;19;20017;-72
2023/08/23 12:04:51;;;;;;;11.68;2.40;;;;;;;;;;7371201;19;20003;-72
2023/08/23 12:07:17;;;;;;;7.22;2.40;;;;;;;;;;7395953;19;20005;-73
2023/08/23 12:09:42;;;;;;;7.45;2.80;;;;;;;;;;7374117;19;20010;-73
2023/08/23 12:12:08;;;;;;;9.32;2.90;;;;;;;;;;7373842;19;20021;-72
2023/08/23 12:14:33;;;;;;;6.82;2.35;;;;;;;;;;7373595;19;20006;-72
2023/08/23 12:16:59;;;;;;;7.20;2.72;;;;;;;;;;7374820;19;20093;-72
2023/08/23 12:19:24;;;;;;;6.63;2.42;;;;;;;;;;7395190;19;19998;-71
2023/08/23 12:21:50;;;;;;;5.82;2.40;;;;;;;;;;7373858;19;20006;-74
2023/08/23 12:24:17;;;;;;;5.75;2.30;;;;;;;;;;7370878;19;20039;-73
2023/08/23 12:26:42;;;;;;;6.20;2.40;;;;;;;;;;7373019;19;20010;-73
2023/08/23 12:29:08;;;;;;;8.05;2.58;;;;;;;;;;7372564;19;20006;-73
2023/08/23 12:31:33;;;;;;;8.23;2.50;;;;;;;;;;7413609;19;20012;-73
2023/08/23 12:33:59;;;;;;;5.95;2.50;;;;;;;;;;7374918;19;20321;-73
2023/08/23 12:36:25;;;;;;;10.52;2.90;;;;;;;;;;7372083;19;20762;-72
2023/08/23 12:38:51;;;;;;;9.57;2.95;;;;;;;;;;7374199;19;20002;-73
2023/08/23 12:41:16;;;;;;;8.00;2.50;;;;;;;;;;7373245;19;20006;-72
2023/08/23 12:43:41;;;;;;;8.03;2.40;;;;;;;;;;7394302;19;20006;-72
2023/08/23 12:46:07;;;;;;;8.43;2.63;;;;;;;;;;7372430;19;20231;-73
2023/08/23 12:48:33;;;;;;;11.23;2.63;;;;;;;;;;7371649;19;20112;-73
2023/08/23 12:50:58;;;;;;;8.65;2.50;;;;;;;;;;7373084;19;20010;-72
2023/08/23 12:53:23;;;;;;;12.05;5.00;;;;;;;;;;7371562;19;20091;-75
2023/08/23 12:55:53;;;;;;;9.07;2.70;;;;;;;;;;7371196;19;20006;-72
2023/08/23 12:58:19;;;;;;;10.10;2.60;;;;;;;;;;7393444;19;20370;-73
2023/08/23 13:00:44;;;;;;;11.02;2.72;;;;;;;;;;7371967;19;20019;-73
2023/08/23 13:03:10;;;;;;;12.32;3.10;;;;;;;;;;7371562;19;20463;-73
2023/08/23 13:05:36;;;;;;;9.70;3.08;;;;;;;;;;7369853;19;20027;-74
2023/08/23 13:08:01;;;;;;;13.23;2.90;;;;;;;;;;7372015;19;20007;-73
2023/08/23 13:10:26;;;;;;;8.95;3.28;;;;;;;;;;7394477;19;20019;-73
2023/08/23 13:12:52;;;;;;;5.03;2.30;;;;;;;;;;7371650;19;20007;-73
2023/08/23 13:15:17;;;;;;;8.48;2.92;;;;;;;;;;7370724;19;20007;-73
2023/08/23 13:17:42;;;;;;;6.65;2.30;;;;;;;;;;7372273;19;20006;-73
2023/08/23 13:20:09;;;;;;;7.18;3.00;;;;;;;;;;7372573;19;20481;-73
2023/08/23 13:22:35;;;;;;;7.53;2.50;;;;;;;;;;7394277;19;20023;-73
2023/08/23 13:25:00;;;;;;;8.40;3.10;;;;;;;;;;7369055;19;20014;-73
2023/08/23 13:27:25;;;;;;;6.32;2.70;;;;;;;;;;7371492;19;20006;-72
2023/08/23 13:29:51;;;;;;;4.85;2.38;;;;;;;;;;7372243;19;20078;-72
2023/08/23 13:32:16;;;;;;;7.90;2.42;;;;;;;;;;7371203;19;20062;-73
2023/08/23 13:34:41;;;;;;;9.47;2.40;;;;;;;;;;7390569;19;20002;-73
2023/08/23 13:37:07;;;;;;;7.27;2.50;;;;;;;;;;7371506;19;20601;-73
2023/08/23 13:39:33;;;;;;;4.30;2.15;;;;;;;;;;7369168;19;20256;-72
2023/08/23 13:41:58;;;;;;;5.78;2.50;;;;;;;;;;7371573;19;20015;-73
2023/08/23 13:44:24;;;;;;;4.53;2.10;;;;;;;;;;7370625;19;20090;-73
2023/08/23 13:46:49;;;;;;;6.27;2.33;;;;;;;;;;7371353;19;20005;-73
2023/08/23 13:49:14;;;;;;;4.63;2.17;;;;;;;;;;7390810;19;20244;-73
2023/08/23 13:51:40;;;;;;;5.68;2.58;;;;;;;;;;7371139;19;20011;-73
2023/08/23 13:54:05;;;;;;;4.72;2.00;;;;;;;;;;7368388;19;20172;-73
2023/08/23 13:56:30;;;;;;;6.18;3.50;;;;;;;;;;7370268;19;20006;-73
2023/08/23 13:58:58;;;;;;;32.30;2.87;;;;;;;;;;7382148;19;20006;-73
2023/08/23 14:01:24;;;;;;;4.70;2.42;;;;;;;;;;7408631;19;20730;-72
2023/08/23 14:03:50;;;;;;;4.97;2.00;;;;;;;;;;7370716;19;20056;-73
2023/08/23 14:06:15;;;;;;;8.25;2.05;;;;;;;;;;7369959;19;20010;-74
2023/08/23 14:08:41;;;;;;;5.90;2.00;;;;;;;;;;7369364;19;20422;-73
2023/08/23 14:11:06;;;;;;;2.45;1.80;;;;;;;;;;7369628;19;20018;-73
2023/08/23 14:13:31;;;;;;;3.45;1.95;;;;;;;;;;7390275;19;20003;-73
2023/08/23 14:15:57;;;;;;;3.35;2.10;;;;;;;;;;7373364;19;20018;-73
2023/08/23 14:18:23;;;;;;;5.63;2.03;;;;;;;;;;7374284;19;20349;-73
2023/08/23 14:20:48;;;;;;;6.20;1.85;;;;;;;;;;7374636;19;20027;-73
2023/08/23 14:23:13;;;;;;;4.70;2.10;;;;;;;;;;7370825;19;20010;-74
2023/08/23 14:25:40;;;;;;;7.45;2.15;;;;;;;;;;7388529;19;20007;-74